Lucile, Idaho
Current Conditions -  °F | °C
As of 9:35 PM on Saturday 22 Nov 2014 (Local Time) from KGIC Reporting Station
Overcast Overcast  
Wind Chill: 25°   Ceiling: 7500
Heat Index: 33°   Visibility: 10mi
Dew Point: 32°   Wind: 12mph
Humidity: 94%   Direction: 240°WSW
Pressure: 29.96"   Gusts: 17mph
Location:  45.53°N, 116.31°W
Report Text: KGIC 230435Z AUTO 24010G15KT 10SM SCT011 BKN075 OVC100 01/00 A2996 RMK AO1 P0002 T00080000
Loading
Personal Weather Stations






























Interactive Weather Map New forecast layout! Learn more

10-Day Weather Forecast

Advertisements
Track Severe Weather on mobile